Time;durP1;ratioP1;P1;durP2;ratioP2;P2;SDS_P1;SDS_P2;PMS_P1;PMS_P2;Temp;Humidity;BMP_temperature;BMP_pressure;BME280_temperature;BME280_humidity;BME280_pressure;Samples;Min_cycle;Max_cycle;Signal;HPM_P1;HPM_P2
2021/05/03 00:01:49;;;;;;;0.13;0.13;;;;;;;;;;5020814;28;20041;-88
2021/05/03 00:04:15;;;;;;;0.47;0.30;;;;;;;;;;5026244;28;20038;-88
2021/05/03 00:06:41;;;;;;;0.28;0.20;;;;;;;;;;5030931;28;20049;-88
2021/05/03 00:09:07;;;;;;;0.20;0.20;;;;;;;;;;5013781;28;20031;-88
2021/05/03 00:11:33;;;;;;;1.33;0.20;;;;;;;;;;5003103;28;20022;-88
2021/05/03 00:14:00;;;;;;;0.22;0.22;;;;;;;;;;5014506;28;20025;-88
2021/05/03 00:16:26;;;;;;;0.60;0.20;;;;;;;;;;5009728;28;20058;-88
2021/05/03 00:18:52;;;;;;;0.63;0.20;;;;;;;;;;5001598;28;20027;-88
2021/05/03 00:21:18;;;;;;;0.38;0.20;;;;;;;;;;5020242;28;20042;-87
2021/05/03 00:23:44;;;;;;;1.65;0.20;;;;;;;;;;4997545;28;20085;-87
2021/05/03 00:26:11;;;;;;;0.90;0.20;;;;;;;;;;5015827;28;20032;-88
2021/05/03 00:28:37;;;;;;;0.40;0.22;;;;;;;;;;5003883;28;20053;-88
2021/05/03 00:31:04;;;;;;;0.38;0.20;;;;;;;;;;4993654;28;20458;-88
2021/05/03 00:33:30;;;;;;;0.30;0.30;;;;;;;;;;4996835;28;20053;-87
2021/05/03 00:35:56;;;;;;;0.68;0.38;;;;;;;;;;5025792;28;20041;-87
2021/05/03 00:38:22;;;;;;;0.28;0.28;;;;;;;;;;5023693;28;20014;-88
2021/05/03 00:40:48;;;;;;;0.30;0.30;;;;;;;;;;5011063;28;20045;-89
2021/05/03 00:43:18;;;;;;;0.45;0.30;;;;;;;;;;5012870;28;20045;-88
2021/05/03 00:45:45;;;;;;;0.30;0.22;;;;;;;;;;5027904;28;20037;-89
2021/05/03 00:48:11;;;;;;;0.38;0.22;;;;;;;;;;5023671;28;20031;-89
2021/05/03 00:50:37;;;;;;;0.30;0.30;;;;;;;;;;4993318;28;20034;-87
2021/05/03 00:53:04;;;;;;;0.30;0.30;;;;;;;;;;4996962;28;20010;-88
2021/05/03 00:55:30;;;;;;;0.55;0.38;;;;;;;;;;5006192;28;20023;-87
2021/05/03 00:57:56;;;;;;;0.63;0.20;;;;;;;;;;5026505;28;20026;-88
2021/05/03 01:00:24;;;;;;;0.30;0.30;;;;;;;;;;5010270;28;20042;-89
2021/05/03 01:02:50;;;;;;;0.63;0.40;;;;;;;;;;5015495;28;20033;-89
2021/05/03 01:05:16;;;;;;;0.60;0.50;;;;;;;;;;5016196;28;20026;-89
2021/05/03 01:07:42;;;;;;;0.60;0.30;;;;;;;;;;5021685;28;20033;-88
2021/05/03 01:10:09;;;;;;;0.20;0.20;;;;;;;;;;5010322;28;20050;-89
2021/05/03 01:12:37;;;;;;;0.45;0.30;;;;;;;;;;4991192;28;20068;-86
2021/05/03 01:15:04;;;;;;;1.15;0.40;;;;;;;;;;5022262;28;20049;-89
2021/05/03 01:17:31;;;;;;;0.60;0.30;;;;;;;;;;5007732;28;20034;-88
2021/05/03 01:19:57;;;;;;;0.40;0.30;;;;;;;;;;5014407;28;20032;-88
2021/05/03 01:22:23;;;;;;;0.30;0.30;;;;;;;;;;5012408;28;20034;-88
2021/05/03 01:24:49;;;;;;;0.63;0.35;;;;;;;;;;5011014;28;20041;-88
2021/05/03 01:27:15;;;;;;;1.20;0.25;;;;;;;;;;5023587;28;20030;-89
2021/05/03 01:29:41;;;;;;;1.02;0.40;;;;;;;;;;5002748;28;20018;-89
2021/05/03 01:32:07;;;;;;;1.00;0.40;;;;;;;;;;5014153;28;20028;-89
2021/05/03 01:34:33;;;;;;;1.23;0.43;;;;;;;;;;5026155;28;20026;-89
2021/05/03 01:36:59;;;;;;;1.38;0.20;;;;;;;;;;4974916;28;20030;-88
2021/05/03 01:39:25;;;;;;;0.40;0.40;;;;;;;;;;4996384;28;20033;-88
2021/05/03 01:41:51;;;;;;;0.40;0.30;;;;;;;;;;4992235;28;20076;-88
2021/05/03 01:44:17;;;;;;;0.45;0.40;;;;;;;;;;4996737;28;20026;-88
2021/05/03 01:46:43;;;;;;;0.55;0.32;;;;;;;;;;5010866;28;20053;-88
2021/05/03 01:49:10;;;;;;;0.30;0.30;;;;;;;;;;5018159;28;20506;-88
2021/05/03 01:51:36;;;;;;;0.50;0.40;;;;;;;;;;4995129;28;20023;-89
2021/05/03 01:54:04;;;;;;;0.68;0.50;;;;;;;;;;5008788;28;20026;-89
2021/05/03 01:56:30;;;;;;;1.25;0.40;;;;;;;;;;5011757;28;20090;-89
2021/05/03 01:58:57;;;;;;;0.30;0.30;;;;;;;;;;5001875;28;20089;-88
2021/05/03 02:01:23;;;;;;;0.50;0.40;;;;;;;;;;5015910;28;20034;-88
2021/05/03 02:03:49;;;;;;;1.58;0.50;;;;;;;;;;4993575;28;20037;-88
2021/05/03 02:06:15;;;;;;;0.40;0.40;;;;;;;;;;5010465;28;20033;-89
2021/05/03 02:08:41;;;;;;;2.35;0.50;;;;;;;;;;4996066;28;20085;-86
2021/05/03 02:11:08;;;;;;;0.47;0.47;;;;;;;;;;4992370;28;20022;-88
2021/05/03 02:13:34;;;;;;;1.17;0.45;;;;;;;;;;4996686;28;20006;-89
2021/05/03 02:16:00;;;;;;;0.47;0.40;;;;;;;;;;4992114;28;20037;-87
2021/05/03 02:18:26;;;;;;;0.88;0.50;;;;;;;;;;5018837;28;20026;-87
2021/05/03 02:20:52;;;;;;;0.55;0.45;;;;;;;;;;4980000;28;20126;-88
2021/05/03 02:23:18;;;;;;;0.52;0.50;;;;;;;;;;5002697;28;20030;-88
2021/05/03 02:25:44;;;;;;;4.18;0.50;;;;;;;;;;5024584;28;20033;-88
2021/05/03 02:28:11;;;;;;;0.47;0.47;;;;;;;;;;5025278;28;20018;-87
2021/05/03 02:30:37;;;;;;;0.80;0.50;;;;;;;;;;5009770;28;20026;-88
2021/05/03 02:33:04;;;;;;;0.75;0.52;;;;;;;;;;5013234;28;20710;-89
2021/05/03 02:35:33;;;;;;;0.43;0.43;;;;;;;;;;5016824;28;20022;-89
2021/05/03 02:38:01;;;;;;;0.60;0.60;;;;;;;;;;4996266;28;20044;-89
2021/05/03 02:40:27;;;;;;;0.40;0.40;;;;;;;;;;4992137;28;20053;-88
2021/05/03 02:42:56;;;;;;;2.38;0.50;;;;;;;;;;5031717;28;20024;-88
2021/05/03 02:45:23;;;;;;;0.45;0.45;;;;;;;;;;5014201;28;20029;-87
2021/05/03 02:47:49;;;;;;;0.40;0.40;;;;;;;;;;5029039;28;20026;-88
2021/05/03 02:50:16;;;;;;;0.32;0.32;;;;;;;;;;4992167;28;20039;-89
2021/05/03 02:52:43;;;;;;;1.08;0.50;;;;;;;;;;4988893;28;20030;-86
2021/05/03 02:55:10;;;;;;;1.05;0.45;;;;;;;;;;5012247;28;20052;-88
2021/05/03 02:57:37;;;;;;;0.60;0.40;;;;;;;;;;5012068;28;20113;-87
2021/05/03 03:00:07;;;;;;;1.58;0.68;;;;;;;;;;4999209;28;20046;-88
2021/05/03 03:02:34;;;;;;;1.55;0.65;;;;;;;;;;5019964;28;20037;-88
2021/05/03 03:05:00;;;;;;;0.75;0.50;;;;;;;;;;5006646;28;20089;-86
2021/05/03 03:07:25;;;;;;;1.30;0.43;;;;;;;;;;5000437;28;20025;-86
2021/05/03 03:09:51;;;;;;;0.50;0.50;;;;;;;;;;4993826;28;20030;-86
2021/05/03 03:12:18;;;;;;;0.43;0.40;;;;;;;;;;5015414;28;20026;-88
2021/05/03 03:14:44;;;;;;;0.85;0.50;;;;;;;;;;4998974;28;20022;-87
2021/05/03 03:17:10;;;;;;;0.50;0.50;;;;;;;;;;5017080;28;20026;-88
2021/05/03 03:19:40;;;;;;;0.40;0.40;;;;;;;;;;5002986;28;20021;-86
2021/05/03 03:22:06;;;;;;;2.08;0.50;;;;;;;;;;4994824;28;20065;-89
2021/05/03 03:24:32;;;;;;;1.35;0.60;;;;;;;;;;5012153;28;20019;-89
2021/05/03 03:26:59;;;;;;;3.53;0.50;;;;;;;;;;5007654;28;20034;-89
2021/05/03 03:29:25;;;;;;;0.35;0.35;;;;;;;;;;5024495;28;20022;-89
2021/05/03 03:31:51;;;;;;;0.40;0.40;;;;;;;;;;5029170;28;20493;-88
2021/05/03 03:34:17;;;;;;;0.50;0.40;;;;;;;;;;4996294;28;20049;-88
2021/05/03 03:36:43;;;;;;;1.30;0.55;;;;;;;;;;5012964;28;20490;-88
2021/05/03 03:39:09;;;;;;;0.40;0.30;;;;;;;;;;5009752;28;20046;-89
2021/05/03 03:41:35;;;;;;;0.73;0.50;;;;;;;;;;5003514;28;20043;-89
2021/05/03 03:44:02;;;;;;;0.30;0.30;;;;;;;;;;4996886;28;20474;-89
2021/05/03 03:46:28;;;;;;;0.60;0.47;;;;;;;;;;4983462;28;20026;-89
2021/05/03 03:48:54;;;;;;;0.50;0.50;;;;;;;;;;5007047;28;20053;-87
2021/05/03 03:51:21;;;;;;;1.23;0.50;;;;;;;;;;4992700;28;20030;-89
2021/05/03 03:53:47;;;;;;;1.95;0.50;;;;;;;;;;5003564;28;20478;-88
2021/05/03 03:56:13;;;;;;;0.52;0.50;;;;;;;;;;5015404;28;20737;-89
2021/05/03 03:58:40;;;;;;;0.40;0.40;;;;;;;;;;5001209;28;20030;-89
2021/05/03 04:01:06;;;;;;;1.95;0.55;;;;;;;;;;4990171;28;20463;-89
2021/05/03 04:03:32;;;;;;;0.50;0.50;;;;;;;;;;4996850;28;20023;-91
2021/05/03 04:14:07;;;;;;;1.10;0.40;;;;;;;;;;5016248;28;20022;-92
2021/05/03 04:27:12;;;;;;;0.77;0.50;;;;;;;;;;5015030;28;20030;-90
2021/05/03 04:29:38;;;;;;;0.90;0.60;;;;;;;;;;4996953;28;20049;-89
2021/05/03 04:32:04;;;;;;;1.00;0.55;;;;;;;;;;5018645;28;20052;-90
2021/05/03 04:34:30;;;;;;;1.00;0.52;;;;;;;;;;5009720;28;20018;-90
2021/05/03 04:36:56;;;;;;;0.70;0.50;;;;;;;;;;4993343;28;20023;-91
2021/05/03 04:39:22;;;;;;;1.58;0.60;;;;;;;;;;4994786;28;20022;-91
2021/05/03 04:41:48;;;;;;;0.98;0.52;;;;;;;;;;5007901;28;20042;-90
2021/05/03 04:44:14;;;;;;;0.65;0.65;;;;;;;;;;5007376;28;20023;-90
2021/05/03 04:46:40;;;;;;;1.98;0.60;;;;;;;;;;4985743;28;20109;-91
2021/05/03 04:49:06;;;;;;;0.50;0.50;;;;;;;;;;5000996;28;20060;-90
2021/05/03 04:51:32;;;;;;;1.20;0.60;;;;;;;;;;4980145;28;20030;-90
2021/05/03 04:53:58;;;;;;;1.10;0.80;;;;;;;;;;4981292;28;20030;-90
2021/05/03 04:56:24;;;;;;;1.50;0.68;;;;;;;;;;5003371;28;20385;-90
2021/05/03 04:58:50;;;;;;;0.60;0.60;;;;;;;;;;5006754;28;20103;-89
2021/05/03 05:01:16;;;;;;;1.67;0.80;;;;;;;;;;4994078;28;20491;-90
2021/05/03 05:03:42;;;;;;;2.30;0.80;;;;;;;;;;5009892;28;20018;-90
2021/05/03 05:06:09;;;;;;;1.40;0.73;;;;;;;;;;4996521;28;20057;-90
2021/05/03 05:08:35;;;;;;;0.50;0.50;;;;;;;;;;5014939;28;20022;-90
2021/05/03 05:11:01;;;;;;;1.10;0.52;;;;;;;;;;5009212;28;20471;-89
2021/05/03 05:13:27;;;;;;;1.23;0.80;;;;;;;;;;4995445;28;20022;-90
2021/05/03 05:15:53;;;;;;;1.00;0.70;;;;;;;;;;5008850;28;20030;-90
2021/05/03 05:18:19;;;;;;;0.93;0.73;;;;;;;;;;5007053;28;20045;-89
2021/05/03 05:20:45;;;;;;;1.10;0.68;;;;;;;;;;5009280;28;20042;-89
2021/05/03 05:23:11;;;;;;;0.85;0.70;;;;;;;;;;4991867;28;20094;-90
2021/05/03 05:25:37;;;;;;;1.02;0.70;;;;;;;;;;5007900;28;20073;-92
2021/05/03 05:28:03;;;;;;;1.35;0.70;;;;;;;;;;4983884;28;20030;-93
2021/05/03 05:30:30;;;;;;;0.82;0.50;;;;;;;;;;4991455;28;20030;-93
2021/05/03 05:32:56;;;;;;;0.40;0.40;;;;;;;;;;5001848;28;20479;-93
2021/05/03 05:35:22;;;;;;;0.50;0.50;;;;;;;;;;5014102;28;20034;-91
2021/05/03 05:37:48;;;;;;;1.02;0.70;;;;;;;;;;5000646;28;20018;-92
2021/05/03 05:40:14;;;;;;;1.05;0.85;;;;;;;;;;4992859;28;20129;-92
2021/05/03 05:42:40;;;;;;;1.58;0.80;;;;;;;;;;5010189;28;20041;-91
2021/05/03 05:45:06;;;;;;;0.50;0.50;;;;;;;;;;5006422;28;20026;-92
2021/05/03 05:47:32;;;;;;;2.38;0.98;;;;;;;;;;4997149;28;20483;-92
2021/05/03 05:49:58;;;;;;;0.60;0.60;;;;;;;;;;4997773;28;20053;-90
2021/05/03 05:52:24;;;;;;;0.93;0.70;;;;;;;;;;5008463;28;20018;-90
2021/05/03 05:54:50;;;;;;;0.50;0.50;;;;;;;;;;5030005;28;20085;-90
2021/05/03 05:57:17;;;;;;;0.65;0.50;;;;;;;;;;4978179;28;20038;-90
2021/05/03 05:59:42;;;;;;;1.27;0.90;;;;;;;;;;5013662;28;20455;-90
2021/05/03 06:02:09;;;;;;;2.70;1.00;;;;;;;;;;4997712;28;20099;-91
2021/05/03 06:04:36;;;;;;;1.10;0.70;;;;;;;;;;4985054;28;20030;-92
2021/05/03 06:07:02;;;;;;;1.30;0.70;;;;;;;;;;4992312;28;20502;-91
2021/05/03 06:09:28;;;;;;;0.90;0.65;;;;;;;;;;4979809;28;20042;-91
2021/05/03 06:11:55;;;;;;;1.42;0.90;;;;;;;;;;4974115;28;20030;-93
2021/05/03 06:14:21;;;;;;;1.10;0.80;;;;;;;;;;4986434;28;20031;-94
2021/05/03 06:16:47;;;;;;;0.80;0.63;;;;;;;;;;4979398;28;20027;-93
2021/05/03 06:19:13;;;;;;;0.90;0.60;;;;;;;;;;4977846;28;20025;-83
2021/05/03 06:21:39;;;;;;;1.00;0.70;;;;;;;;;;4971564;28;20097;-82
2021/05/03 06:24:06;;;;;;;1.17;0.70;;;;;;;;;;5001989;28;20025;-82
2021/05/03 06:26:32;;;;;;;1.35;0.60;;;;;;;;;;4994250;28;20450;-82
2021/05/03 06:28:58;;;;;;;2.55;0.70;;;;;;;;;;4993034;28;20018;-82
2021/05/03 06:31:24;;;;;;;0.50;0.50;;;;;;;;;;4993257;28;20133;-83
2021/05/03 06:33:50;;;;;;;0.90;0.45;;;;;;;;;;5004202;28;20046;-82
2021/05/03 06:36:16;;;;;;;1.90;0.70;;;;;;;;;;5005659;28;20102;-82
2021/05/03 06:38:42;;;;;;;1.52;0.60;;;;;;;;;;5002068;28;20053;-81
2021/05/03 06:41:08;;;;;;;0.70;0.68;;;;;;;;;;4988945;28;20576;-83
2021/05/03 06:43:34;;;;;;;0.60;0.50;;;;;;;;;;4990319;28;20065;-81
2021/05/03 06:46:00;;;;;;;0.55;0.50;;;;;;;;;;4995463;28;20033;-83
2021/05/03 06:48:26;;;;;;;0.80;0.65;;;;;;;;;;4999416;28;20034;-83
2021/05/03 06:50:52;;;;;;;2.35;0.50;;;;;;;;;;4987986;28;20033;-82
2021/05/03 06:53:18;;;;;;;1.33;0.52;;;;;;;;;;4987216;28;20054;-84
2021/05/03 06:55:47;;;;;;;0.60;0.50;;;;;;;;;;4988834;28;20109;-84
2021/05/03 06:58:15;;;;;;;0.57;0.50;;;;;;;;;;4975795;28;20041;-84
2021/05/03 07:00:42;;;;;;;0.67;0.67;;;;;;;;;;4971900;28;20061;-81
2021/05/03 07:03:08;;;;;;;0.50;0.50;;;;;;;;;;4987613;28;20252;-83
2021/05/03 07:05:35;;;;;;;3.42;0.63;;;;;;;;;;4987341;28;20109;-83
2021/05/03 07:08:01;;;;;;;1.02;0.60;;;;;;;;;;4998142;28;20081;-83
2021/05/03 07:10:27;;;;;;;2.55;0.70;;;;;;;;;;4999757;28;20041;-83
2021/05/03 07:12:53;;;;;;;0.77;0.63;;;;;;;;;;5009066;28;20027;-83
2021/05/03 07:15:19;;;;;;;1.15;0.60;;;;;;;;;;5003833;28;20110;-84
2021/05/03 07:17:46;;;;;;;0.50;0.50;;;;;;;;;;4993248;28;20026;-84
2021/05/03 07:20:13;;;;;;;1.58;0.60;;;;;;;;;;5010397;28;20053;-83
2021/05/03 07:22:39;;;;;;;2.15;0.80;;;;;;;;;;4995371;28;20037;-83
2021/05/03 07:25:06;;;;;;;0.70;0.70;;;;;;;;;;4992461;28;20031;-83
2021/05/03 07:27:32;;;;;;;0.88;0.60;;;;;;;;;;4997883;28;20022;-83
2021/05/03 07:29:59;;;;;;;0.68;0.60;;;;;;;;;;4988843;28;20129;-82
2021/05/03 07:32:25;;;;;;;0.75;0.60;;;;;;;;;;4997313;28;20026;-83
2021/05/03 07:34:51;;;;;;;1.75;0.50;;;;;;;;;;4995065;28;20037;-83
2021/05/03 07:37:17;;;;;;;1.08;0.70;;;;;;;;;;4994809;28;20026;-84
2021/05/03 07:39:43;;;;;;;0.93;0.70;;;;;;;;;;4994087;28;20023;-83
2021/05/03 07:42:10;;;;;;;0.60;0.60;;;;;;;;;;4998451;28;20022;-83
2021/05/03 07:44:36;;;;;;;2.15;0.60;;;;;;;;;;4996595;28;20026;-83
2021/05/03 07:47:02;;;;;;;0.60;0.60;;;;;;;;;;4994011;28;20050;-83
2021/05/03 07:49:28;;;;;;;0.85;0.60;;;;;;;;;;4994540;28;20080;-83
2021/05/03 07:51:54;;;;;;;0.60;0.60;;;;;;;;;;4993192;28;20040;-83
2021/05/03 07:54:20;;;;;;;0.50;0.50;;;;;;;;;;4996323;28;20097;-84
2021/05/03 07:56:46;;;;;;;0.82;0.50;;;;;;;;;;4994225;28;20450;-84
2021/05/03 07:59:12;;;;;;;0.68;0.60;;;;;;;;;;4978237;28;20022;-84
2021/05/03 08:01:39;;;;;;;0.55;0.55;;;;;;;;;;4994412;28;20041;-84
2021/05/03 08:04:05;;;;;;;1.25;0.60;;;;;;;;;;4973536;28;20535;-83
2021/05/03 08:06:31;;;;;;;0.82;0.50;;;;;;;;;;4995612;28;20018;-84
2021/05/03 08:09:05;;;;;;;0.93;0.50;;;;;;;;;;4995260;28;20030;-83
2021/05/03 08:11:32;;;;;;;0.68;0.60;;;;;;;;;;4995214;28;20030;-83
2021/05/03 08:13:58;;;;;;;0.60;0.40;;;;;;;;;;4995433;28;20049;-83
2021/05/03 08:16:26;;;;;;;1.02;0.68;;;;;;;;;;4992089;28;20026;-83
2021/05/03 08:18:52;;;;;;;0.70;0.63;;;;;;;;;;4992192;28;20520;-83
2021/05/03 08:21:18;;;;;;;1.98;0.70;;;;;;;;;;4997989;28;20030;-83
2021/05/03 08:23:44;;;;;;;1.50;0.60;;;;;;;;;;4995416;28;20109;-84
2021/05/03 08:26:10;;;;;;;0.82;0.65;;;;;;;;;;4995397;28;20109;-83
2021/05/03 08:28:39;;;;;;;1.25;0.70;;;;;;;;;;4996193;28;20028;-83
2021/05/03 08:31:05;;;;;;;1.73;0.68;;;;;;;;;;4991803;28;20073;-83
2021/05/03 08:33:31;;;;;;;1.40;0.60;;;;;;;;;;4997111;28;20467;-83
2021/05/03 08:35:57;;;;;;;0.60;0.60;;;;;;;;;;4995457;28;20042;-83
2021/05/03 08:38:24;;;;;;;0.77;0.70;;;;;;;;;;4994315;28;20023;-83
2021/05/03 08:40:50;;;;;;;1.05;0.60;;;;;;;;;;4995409;28;20041;-83
2021/05/03 08:43:16;;;;;;;0.57;0.57;;;;;;;;;;4993178;28;20030;-84
2021/05/03 08:45:42;;;;;;;0.80;0.68;;;;;;;;;;4993202;28;20026;-83
2021/05/03 08:48:22;;;;;;;0.85;0.52;;;;;;;;;;5001816;28;20077;-83
2021/05/03 08:50:51;;;;;;;1.00;0.75;;;;;;;;;;4994213;28;20065;-84
2021/05/03 08:53:22;;;;;;;0.68;0.68;;;;;;;;;;4993512;28;20026;-83
2021/05/03 08:55:48;;;;;;;0.60;0.40;;;;;;;;;;4994921;28;20041;-83
2021/05/03 08:58:14;;;;;;;1.10;0.70;;;;;;;;;;4974607;28;20018;-83
2021/05/03 09:00:41;;;;;;;0.40;0.40;;;;;;;;;;4976290;28;20038;-83
2021/05/03 09:03:09;;;;;;;1.45;0.70;;;;;;;;;;5005768;28;20371;-84
2021/05/03 09:05:35;;;;;;;0.90;0.57;;;;;;;;;;4996977;28;20390;-84
2021/05/03 09:08:03;;;;;;;0.77;0.68;;;;;;;;;;4989985;28;20467;-84
2021/05/03 09:10:30;;;;;;;0.68;0.60;;;;;;;;;;4994362;28;20032;-83
2021/05/03 09:13:07;;;;;;;1.40;0.60;;;;;;;;;;4991350;28;20422;-83
2021/05/03 09:15:33;;;;;;;0.85;0.60;;;;;;;;;;5004450;28;20049;-84
2021/05/03 09:17:59;;;;;;;0.52;0.50;;;;;;;;;;4993033;28;20113;-84
2021/05/03 09:20:26;;;;;;;1.23;0.73;;;;;;;;;;4998424;28;20041;-84
2021/05/03 09:22:55;;;;;;;3.03;0.60;;;;;;;;;;4994881;28;20061;-84
2021/05/03 09:25:31;;;;;;;0.63;0.50;;;;;;;;;;4990889;28;20026;-84
2021/05/03 09:28:04;;;;;;;0.50;0.50;;;;;;;;;;4991229;28;20021;-84
2021/05/03 09:30:35;;;;;;;0.55;0.40;;;;;;;;;;5004385;28;20401;-84
2021/05/03 09:33:19;;;;;;;0.40;0.40;;;;;;;;;;4994419;28;20036;-84
2021/05/03 09:35:51;;;;;;;1.00;0.57;;;;;;;;;;4993734;28;20025;-84
2021/05/03 09:38:53;;;;;;;0.50;0.50;;;;;;;;;;4993806;28;20427;-84
2021/05/03 09:41:19;;;;;;;0.70;0.60;;;;;;;;;;4940408;29;20043;-84
2021/05/03 09:43:49;;;;;;;0.50;0.50;;;;;;;;;;4977758;28;20100;-85
2021/05/03 09:46:27;;;;;;;0.95;0.80;;;;;;;;;;4990841;28;20015;-84
2021/05/03 09:48:54;;;;;;;1.80;0.60;;;;;;;;;;4991118;28;20065;-83
2021/05/03 09:51:39;;;;;;;0.90;0.40;;;;;;;;;;4999477;28;20029;-84
2021/05/03 09:54:05;;;;;;;0.60;0.47;;;;;;;;;;4999672;28;20040;-83
2021/05/03 09:56:46;;;;;;;0.50;0.50;;;;;;;;;;4998315;28;20030;-83
2021/05/03 09:59:29;;;;;;;1.17;0.50;;;;;;;;;;4995803;28;20030;-85
2021/05/03 10:02:06;;;;;;;0.70;0.60;;;;;;;;;;4998326;28;20053;-84
2021/05/03 10:04:33;;;;;;;4.40;3.15;;;;;;;;;;4996092;28;20018;-83
2021/05/03 10:07:00;;;;;;;1.85;1.00;;;;;;;;;;4992555;28;20177;-82
2021/05/03 10:09:27;;;;;;;0.50;0.50;;;;;;;;;;4999377;28;20415;-82
2021/05/03 10:11:54;;;;;;;1.30;0.60;;;;;;;;;;5001047;28;20022;-82
2021/05/03 10:14:20;;;;;;;0.85;0.60;;;;;;;;;;5010848;28;20034;-81
2021/05/03 10:16:47;;;;;;;0.90;0.65;;;;;;;;;;5004969;28;20542;-82
2021/05/03 10:19:14;;;;;;;0.88;0.50;;;;;;;;;;5000709;28;20031;-82
2021/05/03 10:21:42;;;;;;;0.85;0.60;;;;;;;;;;5003630;28;20042;-81
2021/05/03 10:24:08;;;;;;;0.57;0.57;;;;;;;;;;5000917;28;20022;-81
2021/05/03 10:26:34;;;;;;;1.25;0.50;;;;;;;;;;4997249;28;20053;-81
2021/05/03 10:29:02;;;;;;;1.40;0.50;;;;;;;;;;4983085;28;20022;-81
2021/05/03 10:31:28;;;;;;;0.93;0.50;;;;;;;;;;5007581;28;20015;-81
2021/05/03 10:33:54;;;;;;;1.00;0.80;;;;;;;;;;5012824;28;20054;-82
2021/05/03 10:36:34;;;;;;;0.77;0.50;;;;;;;;;;5000946;28;20105;-81
2021/05/03 10:39:00;;;;;;;1.02;0.60;;;;;;;;;;5002480;28;20037;-81
2021/05/03 10:41:31;;;;;;;2.70;0.55;;;;;;;;;;5003634;28;20552;-81
2021/05/03 10:44:11;;;;;;;0.47;0.47;;;;;;;;;;5011036;28;20035;-81
2021/05/03 10:49:13;;;;;;;1.98;0.60;;;;;;;;;;4999812;28;20042;-82
2021/05/03 10:56:56;;;;;;;0.68;0.40;;;;;;;;;;5006076;28;20038;-81
2021/05/03 10:59:22;;;;;;;1.25;0.88;;;;;;;;;;4988175;28;20057;-82
2021/05/03 11:01:54;;;;;;;2.22;0.50;;;;;;;;;;4987928;28;20035;-81
2021/05/03 11:04:20;;;;;;;0.80;0.50;;;;;;;;;;4994427;28;20050;-82
2021/05/03 11:06:46;;;;;;;0.85;0.47;;;;;;;;;;4995336;28;20064;-82
2021/05/03 11:09:40;;;;;;;0.65;0.50;;;;;;;;;;4998575;28;20042;-82
2021/05/03 11:12:06;;;;;;;1.95;0.50;;;;;;;;;;4997821;28;20048;-80
2021/05/03 11:14:33;;;;;;;0.40;0.40;;;;;;;;;;5003180;28;20359;-83
2021/05/03 11:17:06;;;;;;;1.48;0.50;;;;;;;;;;5001710;28;20407;-82
2021/05/03 11:19:36;;;;;;;0.80;0.60;;;;;;;;;;4994752;28;20021;-82
2021/05/03 11:22:03;;;;;;;0.90;0.65;;;;;;;;;;4977033;28;20035;-82
2021/05/03 11:24:33;;;;;;;0.68;0.50;;;;;;;;;;4998541;28;20034;-81
2021/05/03 11:27:09;;;;;;;0.60;0.60;;;;;;;;;;4996705;28;20038;-82
2021/05/03 11:32:04;;;;;;;0.80;0.50;;;;;;;;;;4996522;28;20092;-82
2021/05/03 11:34:42;;;;;;;0.65;0.60;;;;;;;;;;4996092;28;20018;-82
2021/05/03 11:37:10;;;;;;;0.57;0.55;;;;;;;;;;4979149;28;20034;-81
2021/05/03 11:42:56;;;;;;;1.50;0.55;;;;;;;;;;4998967;28;20053;-81
2021/05/03 11:45:23;;;;;;;0.73;0.57;;;;;;;;;;4999480;28;20422;-81
2021/05/03 11:47:52;;;;;;;0.50;0.50;;;;;;;;;;4990746;28;20419;-81
2021/05/03 11:50:21;;;;;;;0.80;0.60;;;;;;;;;;4988188;28;20034;-82
2021/05/03 11:52:47;;;;;;;1.00;0.60;;;;;;;;;;4996289;28;20065;-81
2021/05/03 11:55:14;;;;;;;0.77;0.70;;;;;;;;;;4995532;28;20030;-83
2021/05/03 11:57:48;;;;;;;0.70;0.40;;;;;;;;;;4977508;28;20380;-82
2021/05/03 12:00:15;;;;;;;0.40;0.40;;;;;;;;;;4995973;28;20041;-82
2021/05/03 12:02:42;;;;;;;0.50;0.43;;;;;;;;;;4994336;28;20109;-82
2021/05/03 12:05:12;;;;;;;0.50;0.50;;;;;;;;;;4994265;28;20026;-82
2021/05/03 12:07:38;;;;;;;0.63;0.63;;;;;;;;;;4979461;28;20048;-82
2021/05/03 12:10:05;;;;;;;0.52;0.43;;;;;;;;;;4991455;28;20365;-82
2021/05/03 12:12:36;;;;;;;0.68;0.45;;;;;;;;;;4997393;28;20045;-81
2021/05/03 12:15:03;;;;;;;1.35;0.60;;;;;;;;;;4994667;28;20019;-81
2021/05/03 12:17:30;;;;;;;0.95;0.47;;;;;;;;;;5005776;28;20026;-82
2021/05/03 12:20:16;;;;;;;0.50;0.40;;;;;;;;;;4997045;28;20495;-82
2021/05/03 12:23:00;;;;;;;1.23;0.63;;;;;;;;;;5002190;28;20018;-82
2021/05/03 12:25:27;;;;;;;0.68;0.50;;;;;;;;;;4994423;28;20033;-81
2021/05/03 12:27:53;;;;;;;0.60;0.60;;;;;;;;;;4990202;28;20114;-80
2021/05/03 12:30:19;;;;;;;1.35;0.60;;;;;;;;;;5000627;28;20061;-81
2021/05/03 12:32:45;;;;;;;2.03;0.60;;;;;;;;;;4995724;28;20029;-81
2021/05/03 12:35:22;;;;;;;0.50;0.50;;;;;;;;;;5007319;28;20061;-80
2021/05/03 12:37:48;;;;;;;0.50;0.50;;;;;;;;;;5005558;28;20034;-81
2021/05/03 12:40:24;;;;;;;1.10;0.50;;;;;;;;;;4999581;28;20042;-81
2021/05/03 12:42:52;;;;;;;0.75;0.60;;;;;;;;;;4990045;28;20019;-81
2021/05/03 12:45:23;;;;;;;0.50;0.50;;;;;;;;;;4996714;28;20119;-81
2021/05/03 12:53:01;;;;;;;0.93;0.50;;;;;;;;;;4994552;28;20037;-81
2021/05/03 12:56:08;;;;;;;0.55;0.55;;;;;;;;;;4998894;28;20053;-81
2021/05/03 13:01:10;;;;;;;1.20;0.70;;;;;;;;;;4991674;28;20038;-81
2021/05/03 13:03:52;;;;;;;1.20;0.60;;;;;;;;;;5018681;28;20052;-81
2021/05/03 13:29:03;;;;;;;0.80;0.65;;;;;;;;;;4991383;28;20128;-81
2021/05/03 13:31:29;;;;;;;1.92;0.70;;;;;;;;;;4993384;28;20367;-81
2021/05/03 13:33:56;;;;;;;1.27;0.80;;;;;;;;;;4989700;28;20476;-82
2021/05/03 13:36:22;;;;;;;0.80;0.65;;;;;;;;;;5007423;28;20045;-81
2021/05/03 13:38:49;;;;;;;1.33;0.70;;;;;;;;;;4994974;28;20026;-81
2021/05/03 13:41:15;;;;;;;1.05;0.70;;;;;;;;;;4994000;28;20422;-81
2021/05/03 13:43:41;;;;;;;1.02;0.70;;;;;;;;;;4997118;28;20144;-81
2021/05/03 13:46:07;;;;;;;1.08;0.60;;;;;;;;;;4992194;28;20124;-81
2021/05/03 13:48:33;;;;;;;0.73;0.73;;;;;;;;;;4994300;28;20173;-81
2021/05/03 13:50:59;;;;;;;0.90;0.70;;;;;;;;;;4991245;28;20117;-82
2021/05/03 13:53:25;;;;;;;1.30;0.70;;;;;;;;;;4998335;28;20091;-82
2021/05/03 13:55:54;;;;;;;0.98;0.70;;;;;;;;;;4993837;28;20030;-82
2021/05/03 13:58:20;;;;;;;1.52;0.90;;;;;;;;;;4990197;28;20030;-81
2021/05/03 14:00:46;;;;;;;1.67;0.85;;;;;;;;;;4974277;28;20045;-81
2021/05/03 14:03:12;;;;;;;1.67;0.80;;;;;;;;;;4984900;28;20026;-81
2021/05/03 14:05:39;;;;;;;1.00;0.70;;;;;;;;;;4987091;28;20093;-81
2021/05/03 14:08:05;;;;;;;0.60;0.60;;;;;;;;;;4984603;28;20027;-82
2021/05/03 14:10:31;;;;;;;1.77;0.80;;;;;;;;;;4970470;28;20276;-81
2021/05/03 14:12:58;;;;;;;0.75;0.70;;;;;;;;;;4986623;28;20027;-81
2021/05/03 14:15:25;;;;;;;1.02;0.70;;;;;;;;;;4985920;28;20040;-81
2021/05/03 14:17:51;;;;;;;0.82;0.80;;;;;;;;;;4990460;28;20034;-81
2021/05/03 14:20:17;;;;;;;2.40;0.77;;;;;;;;;;4973297;28;20038;-82
2021/05/03 14:22:43;;;;;;;1.15;0.70;;;;;;;;;;4981162;28;20045;-82
2021/05/03 14:25:12;;;;;;;0.85;0.70;;;;;;;;;;5004246;28;20033;-82
2021/05/03 14:27:40;;;;;;;1.40;0.70;;;;;;;;;;5005962;28;20018;-82
2021/05/03 14:30:13;;;;;;;0.90;0.60;;;;;;;;;;4992225;28;20402;-82
2021/05/03 14:32:46;;;;;;;0.85;0.75;;;;;;;;;;5001738;28;20502;-80
2021/05/03 14:35:14;;;;;;;1.40;0.70;;;;;;;;;;5007165;28;20033;-81
2021/05/03 14:37:40;;;;;;;2.08;0.70;;;;;;;;;;5000005;28;20492;-81
2021/05/03 14:40:07;;;;;;;1.33;0.77;;;;;;;;;;4991047;28;20324;-81
2021/05/03 14:42:33;;;;;;;1.67;0.80;;;;;;;;;;4999478;28;20030;-81
2021/05/03 14:44:59;;;;;;;1.00;0.90;;;;;;;;;;5004403;28;20445;-81
2021/05/03 14:47:40;;;;;;;1.30;0.70;;;;;;;;;;4991204;28;20097;-81
2021/05/03 14:50:21;;;;;;;0.80;0.70;;;;;;;;;;4993646;28;20514;-82
2021/05/03 14:55:20;;;;;;;2.13;0.80;;;;;;;;;;4994244;28;20046;-82
2021/05/03 14:57:46;;;;;;;1.00;0.80;;;;;;;;;;4994482;28;20467;-81
2021/05/03 15:00:12;;;;;;;1.90;0.93;;;;;;;;;;4992067;28;20033;-82
2021/05/03 15:02:38;;;;;;;1.55;0.80;;;;;;;;;;4996867;28;20030;-81
2021/05/03 15:05:04;;;;;;;0.85;0.80;;;;;;;;;;4996763;28;20034;-81
2021/05/03 15:07:30;;;;;;;1.67;0.80;;;;;;;;;;4995836;28;20029;-81
2021/05/03 15:09:56;;;;;;;2.42;1.00;;;;;;;;;;4992413;28;20022;-81
2021/05/03 15:12:29;;;;;;;2.75;0.93;;;;;;;;;;4978425;28;20109;-82
2021/05/03 15:15:23;;;;;;;1.90;0.90;;;;;;;;;;5003369;28;20042;-82
2021/05/03 15:23:06;;;;;;;2.88;0.90;;;;;;;;;;4976503;28;20034;-83
2021/05/03 15:25:34;;;;;;;1.55;0.73;;;;;;;;;;5022302;28;20022;-82
2021/05/03 15:33:34;;;;;;;2.85;1.05;;;;;;;;;;4995946;28;20081;-83
2021/05/03 15:36:00;;;;;;;0.82;0.77;;;;;;;;;;5020062;28;20022;-82
2021/05/03 15:38:26;;;;;;;1.85;0.95;;;;;;;;;;5002566;28;20460;-83
2021/05/03 15:40:52;;;;;;;2.40;1.10;;;;;;;;;;4996272;28;20048;-82
2021/05/03 15:43:20;;;;;;;1.80;0.85;;;;;;;;;;5010393;28;20033;-83
2021/05/03 15:45:49;;;;;;;1.35;1.00;;;;;;;;;;5021396;28;20084;-82
2021/05/03 15:48:16;;;;;;;1.27;0.82;;;;;;;;;;5006504;28;20044;-82
2021/05/03 15:50:46;;;;;;;2.55;1.00;;;;;;;;;;4996447;28;20493;-82
2021/05/03 15:53:12;;;;;;;2.60;0.98;;;;;;;;;;4989639;28;20022;-82
2021/05/03 15:55:38;;;;;;;1.95;0.88;;;;;;;;;;4993325;28;20072;-81
2021/05/03 15:58:04;;;;;;;2.47;1.00;;;;;;;;;;4977879;28;20025;-82
2021/05/03 16:00:30;;;;;;;2.58;0.85;;;;;;;;;;4996970;28;20027;-82
2021/05/03 16:02:56;;;;;;;1.08;0.90;;;;;;;;;;4999549;28;20037;-82